sensor_id;sensor_type;location;lat;lon;timestamp;P1;durP1;ratioP1;P2;durP2;ratioP2
76035;SDS011;64732;56.314;44.068;2023-12-28T00:01:54;5.95;;;3.55;;
76035;SDS011;64732;56.314;44.068;2023-12-28T00:04:15;11.00;;;5.20;;
76035;SDS011;64732;56.314;44.068;2023-12-28T00:06:36;9.60;;;3.33;;
76035;SDS011;64732;56.314;44.068;2023-12-28T00:08:58;9.05;;;4.13;;
76035;SDS011;64732;56.314;44.068;2023-12-28T00:11:21;7.55;;;3.70;;
76035;SDS011;64732;56.314;44.068;2023-12-28T00:13:44;11.48;;;4.85;;
76035;SDS011;64732;56.314;44.068;2023-12-28T00:16:06;12.85;;;4.90;;
76035;SDS011;64732;56.314;44.068;2023-12-28T00:18:27;7.70;;;3.92;;
76035;SDS011;64732;56.314;44.068;2023-12-28T00:20:48;8.75;;;4.07;;
76035;SDS011;64732;56.314;44.068;2023-12-28T00:23:09;12.13;;;4.88;;
76035;SDS011;64732;56.314;44.068;2023-12-28T00:25:30;16.52;;;4.80;;
76035;SDS011;64732;56.314;44.068;2023-12-28T00:27:51;9.55;;;3.55;;
76035;SDS011;64732;56.314;44.068;2023-12-28T00:30:15;9.85;;;5.18;;
76035;SDS011;64732;56.314;44.068;2023-12-28T00:32:36;10.15;;;3.05;;
76035;SDS011;64732;56.314;44.068;2023-12-28T00:34:58;8.63;;;3.80;;
76035;SDS011;64732;56.314;44.068;2023-12-28T00:37:19;11.25;;;4.20;;
76035;SDS011;64732;56.314;44.068;2023-12-28T00:39:40;10.13;;;4.65;;
76035;SDS011;64732;56.314;44.068;2023-12-28T00:42:01;10.52;;;4.82;;
76035;SDS011;64732;56.314;44.068;2023-12-28T00:44:22;10.82;;;4.30;;
76035;SDS011;64732;56.314;44.068;2023-12-28T00:46:45;11.23;;;4.53;;
76035;SDS011;64732;56.314;44.068;2023-12-28T00:49:07;7.70;;;2.80;;
76035;SDS011;64732;56.314;44.068;2023-12-28T00:51:28;8.60;;;4.07;;
76035;SDS011;64732;56.314;44.068;2023-12-28T00:53:49;9.55;;;4.55;;
76035;SDS011;64732;56.314;44.068;2023-12-28T00:56:10;8.93;;;4.40;;
76035;SDS011;64732;56.314;44.068;2023-12-28T00:58:31;9.82;;;4.18;;
76035;SDS011;64732;56.314;44.068;2023-12-28T01:00:52;11.93;;;4.47;;
76035;SDS011;64732;56.314;44.068;2023-12-28T01:03:16;9.52;;;4.22;;
76035;SDS011;64732;56.314;44.068;2023-12-28T01:05:37;11.70;;;4.35;;
76035;SDS011;64732;56.314;44.068;2023-12-28T01:07:58;6.47;;;2.53;;
76035;SDS011;64732;56.314;44.068;2023-12-28T01:10:19;7.82;;;3.47;;
76035;SDS011;64732;56.314;44.068;2023-12-28T01:12:41;11.55;;;4.55;;
76035;SDS011;64732;56.314;44.068;2023-12-28T01:15:02;13.95;;;6.07;;
76035;SDS011;64732;56.314;44.068;2023-12-28T01:17:26;8.85;;;3.90;;
76035;SDS011;64732;56.314;44.068;2023-12-28T01:19:49;7.85;;;3.78;;
76035;SDS011;64732;56.314;44.068;2023-12-28T01:22:13;13.68;;;5.18;;
76035;SDS011;64732;56.314;44.068;2023-12-28T01:24:35;10.27;;;4.22;;
76035;SDS011;64732;56.314;44.068;2023-12-28T01:26:57;12.88;;;4.32;;
76035;SDS011;64732;56.314;44.068;2023-12-28T01:29:18;10.07;;;4.63;;
76035;SDS011;64732;56.314;44.068;2023-12-28T01:31:39;11.48;;;4.28;;
76035;SDS011;64732;56.314;44.068;2023-12-28T01:34:00;8.57;;;4.45;;
76035;SDS011;64732;56.314;44.068;2023-12-28T01:36:24;13.77;;;5.93;;
76035;SDS011;64732;56.314;44.068;2023-12-28T01:38:45;15.30;;;5.20;;
76035;SDS011;64732;56.314;44.068;2023-12-28T01:41:06;10.95;;;4.35;;
76035;SDS011;64732;56.314;44.068;2023-12-28T01:43:27;13.65;;;5.35;;
76035;SDS011;64732;56.314;44.068;2023-12-28T01:45:48;12.27;;;5.65;;
76035;SDS011;64732;56.314;44.068;2023-12-28T01:48:10;14.15;;;5.80;;
76035;SDS011;64732;56.314;44.068;2023-12-28T01:50:31;13.45;;;5.65;;
76035;SDS011;64732;56.314;44.068;2023-12-28T01:52:55;13.65;;;3.92;;
76035;SDS011;64732;56.314;44.068;2023-12-28T01:55:16;14.40;;;4.90;;
76035;SDS011;64732;56.314;44.068;2023-12-28T01:57:37;13.55;;;6.30;;
76035;SDS011;64732;56.314;44.068;2023-12-28T01:59:58;12.18;;;4.35;;
76035;SDS011;64732;56.314;44.068;2023-12-28T02:02:20;15.55;;;4.68;;
76035;SDS011;64732;56.314;44.068;2023-12-28T02:04:42;17.90;;;6.32;;
76035;SDS011;64732;56.314;44.068;2023-12-28T02:07:03;10.73;;;5.13;;
76035;SDS011;64732;56.314;44.068;2023-12-28T02:09:27;18.23;;;6.43;;
76035;SDS011;64732;56.314;44.068;2023-12-28T02:11:49;15.80;;;6.10;;
76035;SDS011;64732;56.314;44.068;2023-12-28T02:14:10;14.00;;;5.78;;
76035;SDS011;64732;56.314;44.068;2023-12-28T02:16:32;19.92;;;6.93;;
76035;SDS011;64732;56.314;44.068;2023-12-28T02:18:54;11.40;;;4.38;;
76035;SDS011;64732;56.314;44.068;2023-12-28T02:21:17;16.08;;;6.20;;
76035;SDS011;64732;56.314;44.068;2023-12-28T02:23:45;14.85;;;4.85;;
76035;SDS011;64732;56.314;44.068;2023-12-28T02:26:09;11.52;;;4.20;;
76035;SDS011;64732;56.314;44.068;2023-12-28T02:28:30;19.10;;;6.57;;
76035;SDS011;64732;56.314;44.068;2023-12-28T02:30:51;12.50;;;6.38;;
76035;SDS011;64732;56.314;44.068;2023-12-28T02:33:15;7.07;;;3.97;;
76035;SDS011;64732;56.314;44.068;2023-12-28T02:35:41;11.30;;;4.93;;
76035;SDS011;64732;56.314;44.068;2023-12-28T02:38:04;16.17;;;6.30;;
76035;SDS011;64732;56.314;44.068;2023-12-28T02:40:26;21.02;;;6.57;;
76035;SDS011;64732;56.314;44.068;2023-12-28T02:42:51;11.05;;;5.32;;
76035;SDS011;64732;56.314;44.068;2023-12-28T02:45:12;17.73;;;6.53;;
76035;SDS011;64732;56.314;44.068;2023-12-28T02:47:33;10.93;;;5.00;;
76035;SDS011;64732;56.314;44.068;2023-12-28T02:49:54;17.38;;;6.90;;
76035;SDS011;64732;56.314;44.068;2023-12-28T02:52:15;11.73;;;3.45;;
76035;SDS011;64732;56.314;44.068;2023-12-28T02:54:36;14.45;;;5.55;;
76035;SDS011;64732;56.314;44.068;2023-12-28T02:56:57;13.15;;;5.35;;
76035;SDS011;64732;56.314;44.068;2023-12-28T02:59:21;15.05;;;5.15;;
76035;SDS011;64732;56.314;44.068;2023-12-28T03:01:42;16.00;;;6.65;;
76035;SDS011;64732;56.314;44.068;2023-12-28T03:04:03;15.73;;;5.32;;
76035;SDS011;64732;56.314;44.068;2023-12-28T03:06:24;14.98;;;5.57;;
76035;SDS011;64732;56.314;44.068;2023-12-28T03:08:45;14.73;;;5.13;;
76035;SDS011;64732;56.314;44.068;2023-12-28T03:11:06;22.40;;;7.45;;
76035;SDS011;64732;56.314;44.068;2023-12-28T03:13:27;15.55;;;5.78;;
76035;SDS011;64732;56.314;44.068;2023-12-28T03:15:51;16.40;;;6.30;;
76035;SDS011;64732;56.314;44.068;2023-12-28T03:18:12;21.55;;;7.75;;
76035;SDS011;64732;56.314;44.068;2023-12-28T03:20:33;14.32;;;4.50;;
76035;SDS011;64732;56.314;44.068;2023-12-28T03:22:54;14.95;;;4.53;;
76035;SDS011;64732;56.314;44.068;2023-12-28T03:25:15;10.52;;;4.60;;
76035;SDS011;64732;56.314;44.068;2023-12-28T03:27:36;14.65;;;5.57;;
76035;SDS011;64732;56.314;44.068;2023-12-28T03:29:57;14.18;;;4.88;;
76035;SDS011;64732;56.314;44.068;2023-12-28T03:32:21;8.70;;;3.63;;
76035;SDS011;64732;56.314;44.068;2023-12-28T03:34:42;20.10;;;5.82;;
76035;SDS011;64732;56.314;44.068;2023-12-28T03:37:03;16.10;;;6.28;;
76035;SDS011;64732;56.314;44.068;2023-12-28T03:39:25;12.77;;;5.05;;
76035;SDS011;64732;56.314;44.068;2023-12-28T03:41:47;15.13;;;4.88;;
76035;SDS011;64732;56.314;44.068;2023-12-28T03:44:08;15.90;;;6.20;;
76035;SDS011;64732;56.314;44.068;2023-12-28T03:46:29;13.63;;;5.28;;
76035;SDS011;64732;56.314;44.068;2023-12-28T03:48:52;17.83;;;6.55;;
76035;SDS011;64732;56.314;44.068;2023-12-28T03:51:14;18.55;;;6.82;;
76035;SDS011;64732;56.314;44.068;2023-12-28T03:53:35;18.65;;;6.32;;
76035;SDS011;64732;56.314;44.068;2023-12-28T03:55:56;11.57;;;5.15;;
76035;SDS011;64732;56.314;44.068;2023-12-28T03:58:17;12.15;;;4.78;;
76035;SDS011;64732;56.314;44.068;2023-12-28T04:00:38;19.05;;;5.63;;
76035;SDS011;64732;56.314;44.068;2023-12-28T04:02:59;15.75;;;5.50;;
76035;SDS011;64732;56.314;44.068;2023-12-28T04:05:23;15.75;;;6.35;;
76035;SDS011;64732;56.314;44.068;2023-12-28T04:07:44;10.38;;;4.38;;
76035;SDS011;64732;56.314;44.068;2023-12-28T04:10:08;17.15;;;6.57;;
76035;SDS011;64732;56.314;44.068;2023-12-28T04:12:30;9.73;;;3.28;;
76035;SDS011;64732;56.314;44.068;2023-12-28T04:14:51;14.48;;;5.78;;
76035;SDS011;64732;56.314;44.068;2023-12-28T04:17:12;14.48;;;4.25;;
76035;SDS011;64732;56.314;44.068;2023-12-28T04:19:33;17.05;;;5.50;;
76035;SDS011;64732;56.314;44.068;2023-12-28T04:21:57;10.95;;;4.60;;
76035;SDS011;64732;56.314;44.068;2023-12-28T04:24:18;13.73;;;5.32;;
76035;SDS011;64732;56.314;44.068;2023-12-28T04:26:41;18.50;;;7.10;;
76035;SDS011;64732;56.314;44.068;2023-12-28T04:29:02;17.90;;;5.50;;
76035;SDS011;64732;56.314;44.068;2023-12-28T04:31:23;9.95;;;3.75;;
76035;SDS011;64732;56.314;44.068;2023-12-28T04:33:44;18.98;;;7.28;;
76035;SDS011;64732;56.314;44.068;2023-12-28T04:36:06;15.38;;;5.18;;
76035;SDS011;64732;56.314;44.068;2023-12-28T04:38:30;12.57;;;4.70;;
76035;SDS011;64732;56.314;44.068;2023-12-28T04:40:51;10.35;;;4.47;;
76035;SDS011;64732;56.314;44.068;2023-12-28T04:43:12;16.55;;;6.25;;
76035;SDS011;64732;56.314;44.068;2023-12-28T04:45:33;17.90;;;7.10;;
76035;SDS011;64732;56.314;44.068;2023-12-28T04:47:55;16.52;;;5.18;;
76035;SDS011;64732;56.314;44.068;2023-12-28T04:50:16;17.52;;;5.38;;
76035;SDS011;64732;56.314;44.068;2023-12-28T04:52:37;14.20;;;5.88;;
76035;SDS011;64732;56.314;44.068;2023-12-28T04:55:01;14.02;;;5.28;;
76035;SDS011;64732;56.314;44.068;2023-12-28T04:57:22;16.75;;;7.22;;
76035;SDS011;64732;56.314;44.068;2023-12-28T04:59:43;12.68;;;4.60;;
76035;SDS011;64732;56.314;44.068;2023-12-28T05:02:04;17.55;;;6.82;;
76035;SDS011;64732;56.314;44.068;2023-12-28T05:04:25;15.52;;;6.82;;
76035;SDS011;64732;56.314;44.068;2023-12-28T05:06:46;7.97;;;3.55;;
76035;SDS011;64732;56.314;44.068;2023-12-28T05:09:07;19.55;;;8.02;;
76035;SDS011;64732;56.314;44.068;2023-12-28T05:11:34;14.45;;;5.78;;
76035;SDS011;64732;56.314;44.068;2023-12-28T05:13:55;9.05;;;3.80;;
76035;SDS011;64732;56.314;44.068;2023-12-28T05:16:16;7.40;;;3.38;;
76035;SDS011;64732;56.314;44.068;2023-12-28T05:18:38;16.48;;;5.72;;
76035;SDS011;64732;56.314;44.068;2023-12-28T05:20:59;14.68;;;5.72;;
76035;SDS011;64732;56.314;44.068;2023-12-28T05:23:21;13.40;;;5.05;;
76035;SDS011;64732;56.314;44.068;2023-12-28T05:28:26;20.65;;;6.25;;
76035;SDS011;64732;56.314;44.068;2023-12-28T05:30:47;16.10;;;5.65;;
76035;SDS011;64732;56.314;44.068;2023-12-28T05:33:08;15.25;;;6.00;;
76035;SDS011;64732;56.314;44.068;2023-12-28T05:35:30;13.73;;;5.47;;
76035;SDS011;64732;56.314;44.068;2023-12-28T05:37:51;8.60;;;3.65;;
76035;SDS011;64732;56.314;44.068;2023-12-28T05:40:12;15.88;;;5.07;;
76035;SDS011;64732;56.314;44.068;2023-12-28T05:42:34;17.60;;;5.57;;
76035;SDS011;64732;56.314;44.068;2023-12-28T05:45:06;11.05;;;5.32;;
76035;SDS011;64732;56.314;44.068;2023-12-28T05:47:32;11.45;;;3.85;;
76035;SDS011;64732;56.314;44.068;2023-12-28T05:49:53;12.55;;;4.22;;
76035;SDS011;64732;56.314;44.068;2023-12-28T05:52:14;9.10;;;3.50;;
76035;SDS011;64732;56.314;44.068;2023-12-28T05:54:35;12.60;;;5.25;;
76035;SDS011;64732;56.314;44.068;2023-12-28T05:56:56;12.15;;;4.85;;
76035;SDS011;64732;56.314;44.068;2023-12-28T05:59:17;8.50;;;2.95;;
76035;SDS011;64732;56.314;44.068;2023-12-28T06:01:44;16.08;;;6.47;;
76035;SDS011;64732;56.314;44.068;2023-12-28T06:04:05;7.88;;;3.83;;
76035;SDS011;64732;56.314;44.068;2023-12-28T06:06:27;8.52;;;3.95;;
76035;SDS011;64732;56.314;44.068;2023-12-28T06:08:48;15.05;;;6.68;;
76035;SDS011;64732;56.314;44.068;2023-12-28T06:11:09;16.42;;;5.47;;
76035;SDS011;64732;56.314;44.068;2023-12-28T06:13:30;10.18;;;3.33;;
76035;SDS011;64732;56.314;44.068;2023-12-28T06:15:51;14.77;;;7.07;;
76035;SDS011;64732;56.314;44.068;2023-12-28T06:18:15;11.82;;;4.82;;
76035;SDS011;64732;56.314;44.068;2023-12-28T06:20:36;12.32;;;5.03;;
76035;SDS011;64732;56.314;44.068;2023-12-28T06:22:57;17.48;;;5.55;;
76035;SDS011;64732;56.314;44.068;2023-12-28T06:25:18;9.60;;;3.55;;
76035;SDS011;64732;56.314;44.068;2023-12-28T06:27:40;11.52;;;4.75;;
76035;SDS011;64732;56.314;44.068;2023-12-28T06:30:01;13.32;;;5.35;;
76035;SDS011;64732;56.314;44.068;2023-12-28T06:32:26;10.45;;;3.85;;
76035;SDS011;64732;56.314;44.068;2023-12-28T06:34:49;7.40;;;3.80;;
76035;SDS011;64732;56.314;44.068;2023-12-28T06:37:10;8.43;;;3.88;;
76035;SDS011;64732;56.314;44.068;2023-12-28T06:39:31;12.52;;;4.38;;
76035;SDS011;64732;56.314;44.068;2023-12-28T06:41:52;11.95;;;4.15;;
76035;SDS011;64732;56.314;44.068;2023-12-28T06:44:14;12.32;;;4.18;;
76035;SDS011;64732;56.314;44.068;2023-12-28T06:46:35;5.72;;;2.63;;
76035;SDS011;64732;56.314;44.068;2023-12-28T06:48:56;6.35;;;3.15;;
76035;SDS011;64732;56.314;44.068;2023-12-28T06:51:20;7.22;;;3.13;;
76035;SDS011;64732;56.314;44.068;2023-12-28T06:53:41;9.38;;;3.70;;
76035;SDS011;64732;56.314;44.068;2023-12-28T06:56:02;10.05;;;3.55;;
76035;SDS011;64732;56.314;44.068;2023-12-28T06:58:23;8.20;;;2.67;;
76035;SDS011;64732;56.314;44.068;2023-12-28T07:00:45;10.05;;;3.13;;
76035;SDS011;64732;56.314;44.068;2023-12-28T07:03:06;12.27;;;5.20;;
76035;SDS011;64732;56.314;44.068;2023-12-28T07:05:27;9.27;;;2.47;;
76035;SDS011;64732;56.314;44.068;2023-12-28T07:07:51;14.77;;;4.70;;
76035;SDS011;64732;56.314;44.068;2023-12-28T07:10:12;10.10;;;4.25;;
76035;SDS011;64732;56.314;44.068;2023-12-28T07:12:33;9.07;;;3.78;;
76035;SDS011;64732;56.314;44.068;2023-12-28T07:14:54;7.97;;;3.17;;
76035;SDS011;64732;56.314;44.068;2023-12-28T07:17:15;8.05;;;3.05;;
76035;SDS011;64732;56.314;44.068;2023-12-28T07:19:37;7.85;;;3.63;;
76035;SDS011;64732;56.314;44.068;2023-12-28T07:21:58;11.52;;;4.43;;
76035;SDS011;64732;56.314;44.068;2023-12-28T07:24:22;10.38;;;3.00;;
76035;SDS011;64732;56.314;44.068;2023-12-28T07:26:43;10.63;;;4.00;;
76035;SDS011;64732;56.314;44.068;2023-12-28T07:29:04;6.32;;;2.50;;
76035;SDS011;64732;56.314;44.068;2023-12-28T07:31:26;9.60;;;3.55;;
76035;SDS011;64732;56.314;44.068;2023-12-28T07:33:48;6.63;;;3.15;;
76035;SDS011;64732;56.314;44.068;2023-12-28T07:36:09;7.80;;;3.40;;
76035;SDS011;64732;56.314;44.068;2023-12-28T07:38:30;6.55;;;2.25;;
76035;SDS011;64732;56.314;44.068;2023-12-28T07:40:53;8.93;;;3.13;;
76035;SDS011;64732;56.314;44.068;2023-12-28T07:43:14;8.32;;;3.75;;
76035;SDS011;64732;56.314;44.068;2023-12-28T07:45:36;9.05;;;3.65;;
76035;SDS011;64732;56.314;44.068;2023-12-28T07:47:57;10.35;;;3.45;;
76035;SDS011;64732;56.314;44.068;2023-12-28T07:50:19;4.85;;;2.40;;
76035;SDS011;64732;56.314;44.068;2023-12-28T07:52:41;7.90;;;3.63;;
76035;SDS011;64732;56.314;44.068;2023-12-28T07:55:02;9.60;;;3.72;;
76035;SDS011;64732;56.314;44.068;2023-12-28T07:57:27;7.40;;;3.85;;
76035;SDS011;64732;56.314;44.068;2023-12-28T07:59:48;8.00;;;3.78;;
76035;SDS011;64732;56.314;44.068;2023-12-28T08:02:09;11.00;;;4.20;;
76035;SDS011;64732;56.314;44.068;2023-12-28T08:04:30;6.28;;;3.30;;
76035;SDS011;64732;56.314;44.068;2023-12-28T08:06:51;7.10;;;3.28;;
76035;SDS011;64732;56.314;44.068;2023-12-28T08:09:12;5.53;;;2.83;;
76035;SDS011;64732;56.314;44.068;2023-12-28T08:11:33;4.57;;;2.15;;
76035;SDS011;64732;56.314;44.068;2023-12-28T08:13:57;5.10;;;2.65;;
76035;SDS011;64732;56.314;44.068;2023-12-28T08:16:18;8.38;;;3.13;;
76035;SDS011;64732;56.314;44.068;2023-12-28T08:18:39;7.97;;;2.65;;
76035;SDS011;64732;56.314;44.068;2023-12-28T08:21:00;6.35;;;3.40;;
76035;SDS011;64732;56.314;44.068;2023-12-28T08:23:22;8.70;;;3.88;;
76035;SDS011;64732;56.314;44.068;2023-12-28T08:25:43;7.45;;;3.20;;
76035;SDS011;64732;56.314;44.068;2023-12-28T08:28:04;5.07;;;2.45;;
76035;SDS011;64732;56.314;44.068;2023-12-28T08:30:28;3.00;;;1.73;;
76035;SDS011;64732;56.314;44.068;2023-12-28T08:32:49;4.97;;;2.53;;
76035;SDS011;64732;56.314;44.068;2023-12-28T08:35:10;7.00;;;3.08;;
76035;SDS011;64732;56.314;44.068;2023-12-28T08:37:31;7.22;;;2.75;;
76035;SDS011;64732;56.314;44.068;2023-12-28T08:39:53;3.88;;;1.65;;
76035;SDS011;64732;56.314;44.068;2023-12-28T08:42:14;4.55;;;1.35;;
76035;SDS011;64732;56.314;44.068;2023-12-28T08:44:35;7.40;;;2.13;;
76035;SDS011;64732;56.314;44.068;2023-12-28T08:46:59;5.40;;;2.95;;
76035;SDS011;64732;56.314;44.068;2023-12-28T08:49:20;4.20;;;2.03;;
76035;SDS011;64732;56.314;44.068;2023-12-28T08:51:41;5.43;;;2.70;;
76035;SDS011;64732;56.314;44.068;2023-12-28T08:54:02;4.93;;;2.08;;
76035;SDS011;64732;56.314;44.068;2023-12-28T08:56:23;7.82;;;3.38;;
76035;SDS011;64732;56.314;44.068;2023-12-28T08:58:44;4.55;;;2.47;;
76035;SDS011;64732;56.314;44.068;2023-12-28T09:01:06;6.55;;;2.00;;
76035;SDS011;64732;56.314;44.068;2023-12-28T09:03:29;6.03;;;3.50;;
76035;SDS011;64732;56.314;44.068;2023-12-28T09:05:51;5.88;;;2.75;;
76035;SDS011;64732;56.314;44.068;2023-12-28T09:08:12;5.82;;;2.50;;
76035;SDS011;64732;56.314;44.068;2023-12-28T09:10:33;5.28;;;2.35;;
76035;SDS011;64732;56.314;44.068;2023-12-28T09:12:54;4.43;;;2.25;;
76035;SDS011;64732;56.314;44.068;2023-12-28T09:15:15;5.40;;;2.70;;
76035;SDS011;64732;56.314;44.068;2023-12-28T09:17:36;4.82;;;2.00;;
76035;SDS011;64732;56.314;44.068;2023-12-28T09:20:00;8.05;;;3.25;;
76035;SDS011;64732;56.314;44.068;2023-12-28T09:22:23;2.72;;;1.30;;
76035;SDS011;64732;56.314;44.068;2023-12-28T09:24:44;4.03;;;2.13;;
76035;SDS011;64732;56.314;44.068;2023-12-28T09:27:05;6.03;;;3.17;;
76035;SDS011;64732;56.314;44.068;2023-12-28T09:29:26;8.40;;;3.63;;
76035;SDS011;64732;56.314;44.068;2023-12-28T09:31:47;6.55;;;3.22;;
76035;SDS011;64732;56.314;44.068;2023-12-28T09:34:08;7.15;;;2.85;;
76035;SDS011;64732;56.314;44.068;2023-12-28T09:36:32;6.82;;;3.28;;
76035;SDS011;64732;56.314;44.068;2023-12-28T09:38:53;5.72;;;2.67;;
76035;SDS011;64732;56.314;44.068;2023-12-28T09:41:15;6.15;;;2.60;;
76035;SDS011;64732;56.314;44.068;2023-12-28T09:43:37;5.25;;;2.83;;
76035;SDS011;64732;56.314;44.068;2023-12-28T09:46:01;4.88;;;2.45;;
76035;SDS011;64732;56.314;44.068;2023-12-28T09:48:26;7.55;;;2.10;;
76035;SDS011;64732;56.314;44.068;2023-12-28T09:50:49;7.45;;;2.60;;
76035;SDS011;64732;56.314;44.068;2023-12-28T09:53:13;6.50;;;2.72;;
76035;SDS011;64732;56.314;44.068;2023-12-28T09:55:34;4.30;;;2.22;;
76035;SDS011;64732;56.314;44.068;2023-12-28T09:57:55;7.30;;;2.95;;
76035;SDS011;64732;56.314;44.068;2023-12-28T10:00:16;7.55;;;3.08;;
76035;SDS011;64732;56.314;44.068;2023-12-28T10:02:38;3.78;;;1.92;;
76035;SDS011;64732;56.314;44.068;2023-12-28T10:05:00;6.53;;;2.55;;
76035;SDS011;64732;56.314;44.068;2023-12-28T10:07:21;5.22;;;2.17;;
76035;SDS011;64732;56.314;44.068;2023-12-28T10:09:45;2.72;;;1.80;;
76035;SDS011;64732;56.314;44.068;2023-12-28T10:12:06;4.28;;;2.10;;
76035;SDS011;64732;56.314;44.068;2023-12-28T10:14:27;4.65;;;2.45;;
76035;SDS011;64732;56.314;44.068;2023-12-28T10:16:49;4.30;;;2.00;;
76035;SDS011;64732;56.314;44.068;2023-12-28T10:19:10;3.60;;;1.83;;
76035;SDS011;64732;56.314;44.068;2023-12-28T10:21:31;4.97;;;2.88;;
76035;SDS011;64732;56.314;44.068;2023-12-28T10:23:52;5.32;;;3.17;;
76035;SDS011;64732;56.314;44.068;2023-12-28T10:26:17;6.65;;;2.75;;
76035;SDS011;64732;56.314;44.068;2023-12-28T10:28:38;2.42;;;1.15;;
76035;SDS011;64732;56.314;44.068;2023-12-28T10:30:59;4.00;;;2.08;;
76035;SDS011;64732;56.314;44.068;2023-12-28T10:33:20;3.92;;;2.15;;
76035;SDS011;64732;56.314;44.068;2023-12-28T10:35:42;3.95;;;2.20;;
76035;SDS011;64732;56.314;44.068;2023-12-28T10:38:03;4.05;;;2.13;;
76035;SDS011;64732;56.314;44.068;2023-12-28T10:40:25;6.10;;;2.35;;
76035;SDS011;64732;56.314;44.068;2023-12-28T10:42:49;4.95;;;1.88;;
76035;SDS011;64732;56.314;44.068;2023-12-28T10:45:12;7.75;;;2.85;;
76035;SDS011;64732;56.314;44.068;2023-12-28T10:47:37;5.20;;;2.53;;
76035;SDS011;64732;56.314;44.068;2023-12-28T10:49:58;3.85;;;1.65;;
76035;SDS011;64732;56.314;44.068;2023-12-28T10:52:24;4.97;;;2.20;;
76035;SDS011;64732;56.314;44.068;2023-12-28T10:54:50;3.60;;;1.60;;
76035;SDS011;64732;56.314;44.068;2023-12-28T10:57:18;2.42;;;1.33;;
76035;SDS011;64732;56.314;44.068;2023-12-28T10:59:48;4.90;;;2.25;;
76035;SDS011;64732;56.314;44.068;2023-12-28T11:02:14;6.13;;;3.03;;
76035;SDS011;64732;56.314;44.068;2023-12-28T11:04:37;3.20;;;1.83;;
76035;SDS011;64732;56.314;44.068;2023-12-28T11:07:01;5.53;;;2.42;;
76035;SDS011;64732;56.314;44.068;2023-12-28T11:09:23;2.53;;;1.52;;
76035;SDS011;64732;56.314;44.068;2023-12-28T11:11:45;2.45;;;1.30;;
76035;SDS011;64732;56.314;44.068;2023-12-28T11:14:07;4.75;;;1.83;;
76035;SDS011;64732;56.314;44.068;2023-12-28T11:16:32;3.25;;;1.27;;
76035;SDS011;64732;56.314;44.068;2023-12-28T11:18:53;5.85;;;2.67;;
76035;SDS011;64732;56.314;44.068;2023-12-28T11:21:14;2.55;;;1.55;;
76035;SDS011;64732;56.314;44.068;2023-12-28T11:23:36;3.28;;;1.40;;
76035;SDS011;64732;56.314;44.068;2023-12-28T11:25:57;4.97;;;2.38;;
76035;SDS011;64732;56.314;44.068;2023-12-28T11:28:18;4.75;;;2.33;;
76035;SDS011;64732;56.314;44.068;2023-12-28T11:30:41;3.38;;;1.55;;
76035;SDS011;64732;56.314;44.068;2023-12-28T11:33:05;5.50;;;2.10;;
76035;SDS011;64732;56.314;44.068;2023-12-28T11:35:33;2.63;;;1.38;;
76035;SDS011;64732;56.314;44.068;2023-12-28T11:37:55;5.47;;;1.90;;
76035;SDS011;64732;56.314;44.068;2023-12-28T11:40:16;22.98;;;2.50;;
76035;SDS011;64732;56.314;44.068;2023-12-28T11:42:47;4.70;;;2.42;;
76035;SDS011;64732;56.314;44.068;2023-12-28T11:45:09;4.97;;;1.90;;
76035;SDS011;64732;56.314;44.068;2023-12-28T11:47:31;3.03;;;1.67;;
76035;SDS011;64732;56.314;44.068;2023-12-28T11:49:55;9.05;;;2.47;;
76035;SDS011;64732;56.314;44.068;2023-12-28T11:52:27;7.93;;;2.47;;
76035;SDS011;64732;56.314;44.068;2023-12-28T11:54:50;7.43;;;3.30;;
76035;SDS011;64732;56.314;44.068;2023-12-28T11:57:11;6.50;;;2.75;;
76035;SDS011;64732;56.314;44.068;2023-12-28T11:59:32;4.55;;;2.13;;
76035;SDS011;64732;56.314;44.068;2023-12-28T12:01:53;6.18;;;2.38;;
76035;SDS011;64732;56.314;44.068;2023-12-28T12:04:14;5.38;;;2.67;;
76035;SDS011;64732;56.314;44.068;2023-12-28T12:06:38;8.07;;;4.18;;
76035;SDS011;64732;56.314;44.068;2023-12-28T12:09:00;7.18;;;3.47;;
76035;SDS011;64732;56.314;44.068;2023-12-28T12:11:21;7.18;;;2.97;;
76035;SDS011;64732;56.314;44.068;2023-12-28T12:13:42;7.60;;;3.30;;
76035;SDS011;64732;56.314;44.068;2023-12-28T12:16:03;6.53;;;2.75;;
76035;SDS011;64732;56.314;44.068;2023-12-28T12:18:25;10.85;;;4.15;;
76035;SDS011;64732;56.314;44.068;2023-12-28T12:20:46;5.75;;;3.08;;
76035;SDS011;64732;56.314;44.068;2023-12-28T12:23:10;7.00;;;3.38;;
76035;SDS011;64732;56.314;44.068;2023-12-28T12:25:31;5.85;;;2.60;;
76035;SDS011;64732;56.314;44.068;2023-12-28T12:27:52;8.40;;;3.70;;
76035;SDS011;64732;56.314;44.068;2023-12-28T12:30:14;7.50;;;3.28;;
76035;SDS011;64732;56.314;44.068;2023-12-28T12:32:35;6.72;;;2.97;;
76035;SDS011;64732;56.314;44.068;2023-12-28T12:34:56;6.00;;;2.83;;
76035;SDS011;64732;56.314;44.068;2023-12-28T12:37:17;6.70;;;2.35;;
76035;SDS011;64732;56.314;44.068;2023-12-28T12:39:41;6.15;;;2.75;;
76035;SDS011;64732;56.314;44.068;2023-12-28T12:42:02;9.32;;;3.17;;
76035;SDS011;64732;56.314;44.068;2023-12-28T12:44:24;6.30;;;3.47;;
76035;SDS011;64732;56.314;44.068;2023-12-28T12:46:45;9.70;;;3.30;;
76035;SDS011;64732;56.314;44.068;2023-12-28T12:49:06;10.15;;;3.55;;
76035;SDS011;64732;56.314;44.068;2023-12-28T12:51:29;5.63;;;2.78;;
76035;SDS011;64732;56.314;44.068;2023-12-28T12:53:55;11.32;;;4.70;;
76035;SDS011;64732;56.314;44.068;2023-12-28T12:56:20;8.98;;;4.07;;
76035;SDS011;64732;56.314;44.068;2023-12-28T12:58:43;10.43;;;3.25;;
76035;SDS011;64732;56.314;44.068;2023-12-28T13:01:04;10.40;;;5.35;;
76035;SDS011;64732;56.314;44.068;2023-12-28T13:03:28;9.85;;;3.78;;
76035;SDS011;64732;56.314;44.068;2023-12-28T13:05:49;16.17;;;3.95;;
76035;SDS011;64732;56.314;44.068;2023-12-28T13:08:10;11.90;;;4.32;;
76035;SDS011;64732;56.314;44.068;2023-12-28T13:10:31;11.63;;;5.03;;
76035;SDS011;64732;56.314;44.068;2023-12-28T13:12:55;8.55;;;2.20;;
76035;SDS011;64732;56.314;44.068;2023-12-28T13:15:16;9.35;;;3.60;;
76035;SDS011;64732;56.314;44.068;2023-12-28T13:17:37;6.13;;;3.38;;
76035;SDS011;64732;56.314;44.068;2023-12-28T13:20:01;7.28;;;3.17;;
76035;SDS011;64732;56.314;44.068;2023-12-28T13:22:22;9.88;;;3.75;;
76035;SDS011;64732;56.314;44.068;2023-12-28T13:24:43;5.53;;;2.88;;
76035;SDS011;64732;56.314;44.068;2023-12-28T13:27:04;9.23;;;4.90;;
76035;SDS011;64732;56.314;44.068;2023-12-28T13:29:28;9.45;;;4.35;;
76035;SDS011;64732;56.314;44.068;2023-12-28T13:31:49;8.93;;;2.88;;
76035;SDS011;64732;56.314;44.068;2023-12-28T13:34:10;9.23;;;4.05;;
76035;SDS011;64732;56.314;44.068;2023-12-28T13:36:31;12.43;;;4.80;;
76035;SDS011;64732;56.314;44.068;2023-12-28T13:38:52;9.60;;;3.63;;
76035;SDS011;64732;56.314;44.068;2023-12-28T13:41:13;10.80;;;4.70;;
76035;SDS011;64732;56.314;44.068;2023-12-28T13:43:36;9.02;;;3.30;;
76035;SDS011;64732;56.314;44.068;2023-12-28T13:46:00;9.85;;;3.72;;
76035;SDS011;64732;56.314;44.068;2023-12-28T13:48:21;9.23;;;4.25;;
76035;SDS011;64732;56.314;44.068;2023-12-28T13:50:42;11.13;;;5.28;;
76035;SDS011;64732;56.314;44.068;2023-12-28T13:53:04;11.63;;;5.07;;
76035;SDS011;64732;56.314;44.068;2023-12-28T13:55:25;9.10;;;4.35;;
76035;SDS011;64732;56.314;44.068;2023-12-28T13:57:46;14.85;;;5.72;;
76035;SDS011;64732;56.314;44.068;2023-12-28T14:00:07;9.85;;;3.80;;